Time;durP1;ratioP1;P1;durP2;ratioP2;P2;SDS_P1;SDS_P2;PMS_P1;PMS_P2;Temp;Humidity;BMP_temperature;BMP_pressure;BME280_temperature;BME280_humidity;BME280_pressure;Samples;Min_cycle;Max_cycle;Signal;HPM_P1;HPM_P2
2024/01/28 00:02:11;;;;;;;35.70;17.15;;;0.70;99.90;;;;;;5036525;27;20034;-74
2024/01/28 00:04:36;;;;;;;35.55;16.30;;;0.70;99.90;;;;;;5041017;27;20078;-82
2024/01/28 00:07:02;;;;;;;36.08;17.10;;;0.70;99.90;;;;;;5032651;27;20073;-74
2024/01/28 00:09:28;;;;;;;45.63;19.85;;;0.60;99.90;;;;;;5030877;28;20463;-74
2024/01/28 00:11:53;;;;;;;46.22;19.33;;;0.60;99.90;;;;;;5033034;28;20051;-73
2024/01/28 00:14:19;;;;;;;30.65;15.38;;;0.60;99.90;;;;;;5019808;28;20032;-74
2024/01/28 00:16:45;;;;;;;47.30;20.02;;;0.50;99.90;;;;;;5035456;27;20021;-82
2024/01/28 00:19:10;;;;;;;33.83;16.42;;;0.50;99.90;;;;;;5030454;28;20055;-74
2024/01/28 00:21:36;;;;;;;44.58;17.95;;;0.50;99.90;;;;;;5032861;28;20066;-74
2024/01/28 00:24:04;;;;;;;36.47;15.13;;;0.50;99.90;;;;;;5019614;27;20479;-75
2024/01/28 00:26:30;;;;;;;28.25;11.68;;;0.50;99.90;;;;;;5034316;28;20466;-74
2024/01/28 00:28:55;;;;;;;24.40;10.20;;;0.40;99.90;;;;;;5030703;28;20108;-75
2024/01/28 00:31:21;;;;;;;19.08;8.02;;;0.40;99.90;;;;;;5034859;28;20053;-75
2024/01/28 00:33:46;;;;;;;21.15;8.85;;;0.40;99.90;;;;;;5038229;27;20033;-82
2024/01/28 00:36:15;;;;;;;15.02;8.45;;;0.40;99.90;;;;;;5033738;28;20030;-74
2024/01/28 00:38:41;;;;;;;17.80;8.05;;;0.40;99.90;;;;;;5034148;27;20029;-73
2024/01/28 00:41:07;;;;;;;27.38;12.77;;;0.40;99.90;;;;;;5039186;27;20034;-74
2024/01/28 00:43:32;;;;;;;33.13;11.77;;;0.40;99.90;;;;;;5030544;28;20470;-81
2024/01/28 00:45:58;;;;;;;45.22;18.95;;;0.40;99.90;;;;;;5036981;27;20037;-81
2024/01/28 00:48:24;;;;;;;28.35;14.02;;;0.40;99.90;;;;;;5043638;27;20017;-81
2024/01/28 00:50:49;;;;;;;26.95;12.73;;;0.50;99.90;;;;;;5030649;28;20064;-73
2024/01/28 00:53:17;;;;;;;33.30;15.95;;;0.40;99.90;;;;;;5030409;27;20055;-80
2024/01/28 00:55:42;;;;;;;31.60;14.82;;;0.50;99.90;;;;;;5027999;27;20030;-73
2024/01/28 00:58:09;;;;;;;37.33;18.63;;;0.50;99.90;;;;;;5031661;27;20028;-81
2024/01/28 01:00:34;;;;;;;30.45;14.07;;;0.50;99.90;;;;;;5035235;27;20471;-82
2024/01/28 01:03:00;;;;;;;31.60;13.63;;;0.50;99.90;;;;;;5041370;27;20032;-81
2024/01/28 01:05:26;;;;;;;28.63;13.68;;;0.60;99.90;;;;;;5035982;27;20110;-74
2024/01/28 01:07:51;;;;;;;68.60;31.92;;;0.60;99.90;;;;;;5039693;27;20025;-83
2024/01/28 01:10:18;;;;;;;55.88;24.80;;;0.60;99.90;;;;;;5036793;27;20021;-74
2024/01/28 01:12:45;;;;;;;56.65;29.58;;;0.60;99.90;;;;;;5024004;27;20133;-74
2024/01/28 01:15:11;;;;;;;80.22;39.58;;;0.60;99.90;;;;;;5034515;28;20109;-74
2024/01/28 01:17:36;;;;;;;74.57;37.20;;;0.60;99.90;;;;;;5033317;27;20540;-83
2024/01/28 01:20:02;;;;;;;71.15;35.55;;;0.70;99.90;;;;;;5021811;27;20029;-74
2024/01/28 01:22:28;;;;;;;71.07;31.85;;;0.70;99.90;;;;;;5029789;28;20022;-83
2024/01/28 01:24:54;;;;;;;61.08;33.50;;;0.70;99.90;;;;;;5088490;27;20076;-74
2024/01/28 01:27:19;;;;;;;77.65;35.38;;;0.70;99.90;;;;;;5114649;27;20029;-74
2024/01/28 01:29:45;;;;;;;47.22;22.13;;;0.80;99.90;;;;;;5087159;27;20076;-83
2024/01/28 01:32:11;;;;;;;55.35;25.42;;;0.80;99.90;;;;;;5131248;27;20094;-82
2024/01/28 01:34:37;;;;;;;34.35;15.00;;;0.80;99.90;;;;;;5133085;27;20019;-83
2024/01/28 01:37:03;;;;;;;26.80;12.50;;;0.70;99.90;;;;;;5133990;27;20021;-74
2024/01/28 01:39:29;;;;;;;27.52;10.65;;;0.80;99.90;;;;;;5134945;27;20076;-74
2024/01/28 01:41:55;;;;;;;22.35;9.60;;;0.80;99.90;;;;;;5134141;27;20043;-82
2024/01/28 01:44:20;;;;;;;27.42;11.10;;;0.80;99.90;;;;;;5134521;27;20110;-74
2024/01/28 01:46:47;;;;;;;28.40;11.73;;;0.80;99.90;;;;;;5063212;27;20026;-82
2024/01/28 01:49:13;;;;;;;21.92;9.55;;;0.80;99.90;;;;;;5133970;27;20054;-82
2024/01/28 01:51:39;;;;;;;23.60;9.73;;;0.80;99.90;;;;;;5037728;27;20026;-82
2024/01/28 01:54:06;;;;;;;30.63;13.43;;;0.80;99.90;;;;;;5029751;28;20036;-74
2024/01/28 01:56:34;;;;;;;29.77;12.98;;;0.90;99.90;;;;;;5124983;27;20019;-74
2024/01/28 01:59:00;;;;;;;28.50;14.45;;;0.90;99.90;;;;;;5132260;27;20019;-74
2024/01/28 02:01:28;;;;;;;30.90;14.18;;;0.90;99.90;;;;;;5062876;27;20527;-74
2024/01/28 02:03:55;;;;;;;29.98;12.75;;;0.90;99.90;;;;;;5133325;27;20094;-73
2024/01/28 02:06:21;;;;;;;33.45;14.55;;;0.90;99.90;;;;;;5132678;27;20086;-82
2024/01/28 02:08:46;;;;;;;24.08;11.25;;;0.90;99.90;;;;;;5119219;27;20522;-74
2024/01/28 02:11:12;;;;;;;32.78;12.05;;;1.00;99.90;;;;;;5090792;27;20034;-82
2024/01/28 02:13:38;;;;;;;27.17;12.90;;;0.90;99.90;;;;;;5116116;27;20053;-74
2024/01/28 02:16:04;;;;;;;30.35;14.73;;;0.90;99.90;;;;;;5041034;27;20022;-82
2024/01/28 02:18:30;;;;;;;26.42;13.65;;;0.90;99.90;;;;;;5091841;27;20503;-73
2024/01/28 02:20:56;;;;;;;35.50;17.08;;;0.90;99.90;;;;;;5081352;27;20104;-73
2024/01/28 02:23:21;;;;;;;42.38;17.35;;;0.90;99.90;;;;;;5092446;27;20502;-74
2024/01/28 02:25:49;;;;;;;33.15;14.20;;;0.90;99.90;;;;;;5102745;27;20443;-81
2024/01/28 02:28:15;;;;;;;37.45;13.68;;;0.90;99.90;;;;;;5090595;27;20506;-80
2024/01/28 02:30:41;;;;;;;23.85;10.63;;;0.90;99.90;;;;;;5126322;27;20011;-82
2024/01/28 02:33:07;;;;;;;41.13;14.63;;;0.90;99.90;;;;;;5068999;27;20492;-74
2024/01/28 02:35:32;;;;;;;33.08;12.27;;;0.90;99.90;;;;;;5054829;27;20045;-81
2024/01/28 02:37:58;;;;;;;29.10;13.73;;;0.90;99.90;;;;;;5051937;27;20478;-74
2024/01/28 02:40:23;;;;;;;34.92;15.90;;;0.90;99.90;;;;;;5030526;28;20021;-74
2024/01/28 02:42:49;;;;;;;40.25;13.73;;;0.90;99.90;;;;;;5035754;27;20053;-81
2024/01/28 02:45:15;;;;;;;37.38;15.90;;;0.90;99.90;;;;;;5094117;27;20108;-81
2024/01/28 02:47:41;;;;;;;37.83;15.60;;;0.90;99.90;;;;;;5059039;27;20019;-81
2024/01/28 02:50:07;;;;;;;34.22;16.13;;;0.90;99.90;;;;;;5131806;27;20065;-82
2024/01/28 02:52:33;;;;;;;41.53;17.58;;;1.00;99.90;;;;;;5130154;27;20103;-82
2024/01/28 02:54:58;;;;;;;41.95;15.75;;;0.90;99.90;;;;;;5120896;27;20453;-73
2024/01/28 02:57:24;;;;;;;35.42;15.82;;;1.00;99.90;;;;;;5043129;27;20797;-74
2024/01/28 02:59:50;;;;;;;36.25;15.05;;;1.00;99.90;;;;;;5131714;27;20096;-82
2024/01/28 03:02:17;;;;;;;35.45;14.48;;;1.00;99.90;;;;;;5130841;27;21246;-82
2024/01/28 03:04:43;;;;;;;31.05;15.93;;;1.00;99.90;;;;;;5131684;27;20035;-74
2024/01/28 03:07:08;;;;;;;35.97;12.82;;;1.00;99.90;;;;;;5061070;27;20423;-77
2024/01/28 03:09:34;;;;;;;22.73;12.35;;;1.00;99.90;;;;;;5130669;27;20384;-81
2024/01/28 03:12:00;;;;;;;31.95;12.73;;;1.00;99.90;;;;;;5119631;27;20436;-81
2024/01/28 03:14:26;;;;;;;27.25;11.70;;;1.00;99.90;;;;;;5031792;27;20053;-73
2024/01/28 03:16:52;;;;;;;34.80;12.77;;;1.10;99.90;;;;;;5032279;27;20030;-73
2024/01/28 03:19:18;;;;;;;36.53;16.05;;;1.10;99.90;;;;;;5031014;28;20471;-74
2024/01/28 03:21:43;;;;;;;35.75;16.50;;;1.10;99.90;;;;;;5029859;28;20078;-73
2024/01/28 03:24:09;;;;;;;40.75;17.75;;;1.10;99.90;;;;;;5028986;28;20033;-81
2024/01/28 03:26:35;;;;;;;32.30;14.07;;;1.10;99.90;;;;;;5073462;27;20020;-81
2024/01/28 03:29:02;;;;;;;33.50;15.27;;;1.10;99.90;;;;;;5129641;28;20015;-81
2024/01/28 03:31:28;;;;;;;36.97;15.35;;;1.10;99.90;;;;;;5133689;27;20425;-81
2024/01/28 03:33:54;;;;;;;42.47;16.88;;;1.10;99.90;;;;;;5115348;28;20030;-81
2024/01/28 03:36:20;;;;;;;34.17;15.88;;;1.20;99.90;;;;;;5030965;28;20030;-81
2024/01/28 03:38:45;;;;;;;36.78;15.07;;;1.10;99.90;;;;;;5040495;28;20382;-82
2024/01/28 03:41:14;;;;;;;35.63;16.48;;;1.20;99.90;;;;;;5087687;28;20022;-82
2024/01/28 03:43:42;;;;;;;34.53;17.15;;;1.10;99.90;;;;;;5040048;28;20105;-74
2024/01/28 03:46:09;;;;;;;36.95;17.17;;;1.10;99.90;;;;;;5119582;27;20330;-74
2024/01/28 03:48:35;;;;;;;41.15;17.13;;;1.20;99.90;;;;;;5029979;28;20014;-73
2024/01/28 03:51:01;;;;;;;32.55;14.90;;;1.10;99.90;;;;;;5030594;28;20025;-82
2024/01/28 03:53:27;;;;;;;39.08;16.50;;;1.10;99.90;;;;;;5040781;28;20029;-75
2024/01/28 03:55:53;;;;;;;31.60;15.13;;;1.10;99.90;;;;;;5087334;28;20026;-74
2024/01/28 03:58:18;;;;;;;38.05;13.85;;;1.10;99.90;;;;;;5028862;28;20025;-74
2024/01/28 04:00:44;;;;;;;32.33;13.95;;;1.20;99.90;;;;;;5075789;28;20052;-74
2024/01/28 04:03:09;;;;;;;39.78;17.48;;;1.10;99.90;;;;;;5050627;28;20029;-81
2024/01/28 04:05:35;;;;;;;38.90;17.27;;;1.10;99.90;;;;;;5028500;28;20082;-74
2024/01/28 04:08:01;;;;;;;37.95;17.05;;;1.10;99.90;;;;;;5031209;28;20404;-75
2024/01/28 04:10:27;;;;;;;49.80;24.38;;;1.10;99.90;;;;;;5029633;28;20025;-74
2024/01/28 04:12:53;;;;;;;54.38;23.42;;;1.10;99.90;;;;;;5029616;28;20050;-82
2024/01/28 04:15:18;;;;;;;19.00;11.48;;;1.10;99.90;;;;;;5029086;28;20062;-74
2024/01/28 04:17:44;;;;;;;34.67;13.20;;;1.20;99.90;;;;;;5029878;28;20104;-81
2024/01/28 04:20:10;;;;;;;22.20;11.93;;;1.30;99.90;;;;;;5027873;28;20462;-82
2024/01/28 04:22:36;;;;;;;28.73;13.30;;;1.30;99.90;;;;;;5104269;28;20357;-75
2024/01/28 04:25:01;;;;;;;26.50;11.38;;;1.40;99.90;;;;;;5131036;28;20034;-73
2024/01/28 04:27:27;;;;;;;28.17;14.20;;;1.40;99.90;;;;;;5131026;28;20073;-73
2024/01/28 04:29:52;;;;;;;24.40;10.93;;;1.50;99.90;;;;;;5089060;28;20025;-81
2024/01/28 04:32:18;;;;;;;19.88;10.10;;;1.50;99.90;;;;;;5030608;28;20029;-81
2024/01/28 04:34:44;;;;;;;21.33;11.52;;;1.60;99.90;;;;;;5029061;28;20055;-73
2024/01/28 04:37:10;;;;;;;22.83;12.45;;;1.60;99.90;;;;;;5030601;28;20025;-74
2024/01/28 04:39:35;;;;;;;20.67;10.38;;;1.60;99.90;;;;;;5030155;28;20062;-74
2024/01/28 04:42:02;;;;;;;25.58;12.23;;;1.60;99.90;;;;;;5031970;27;20021;-82
2024/01/28 04:44:27;;;;;;;25.08;12.15;;;1.60;99.90;;;;;;5031056;28;20048;-82
2024/01/28 04:46:55;;;;;;;23.67;12.00;;;1.70;99.90;;;;;;5040268;27;20386;-82
2024/01/28 04:49:21;;;;;;;20.67;12.50;;;1.70;99.90;;;;;;5117858;27;20060;-81
2024/01/28 04:51:46;;;;;;;25.95;14.18;;;1.70;99.90;;;;;;5031982;28;20447;-81
2024/01/28 04:54:14;;;;;;;25.15;12.63;;;1.70;99.90;;;;;;5033270;28;20052;-74
2024/01/28 04:56:40;;;;;;;17.52;10.90;;;1.70;99.90;;;;;;5032189;27;20566;-73
2024/01/28 04:59:06;;;;;;;41.47;14.05;;;1.70;99.90;;;;;;5033399;28;20206;-73
2024/01/28 05:01:33;;;;;;;32.67;13.45;;;1.70;99.90;;;;;;5035358;27;20474;-81
2024/01/28 05:04:00;;;;;;;20.45;12.02;;;1.70;99.90;;;;;;5033849;27;20021;-83
2024/01/28 05:06:34;;;;;;;22.80;10.45;;;1.70;99.90;;;;;;5034417;27;20033;-73
2024/01/28 05:09:08;;;;;;;25.40;11.80;;;1.70;99.90;;;;;;5034068;27;20030;-82
2024/01/28 05:11:34;;;;;;;20.95;12.48;;;1.70;99.90;;;;;;5034254;27;20018;-73
2024/01/28 05:14:00;;;;;;;19.27;10.75;;;1.70;99.90;;;;;;5034889;27;20371;-74
2024/01/28 05:16:27;;;;;;;24.35;11.95;;;1.70;99.90;;;;;;5038396;27;20041;-82
2024/01/28 05:18:53;;;;;;;22.95;11.82;;;1.70;99.90;;;;;;5034881;27;20018;-82
2024/01/28 05:21:19;;;;;;;25.35;11.75;;;1.80;99.90;;;;;;5035029;27;20045;-82
2024/01/28 05:23:47;;;;;;;20.55;11.50;;;1.80;99.90;;;;;;5033500;27;20102;-81
2024/01/28 05:26:14;;;;;;;22.67;10.93;;;1.80;99.90;;;;;;5032948;27;20398;-80
2024/01/28 05:28:40;;;;;;;25.33;13.07;;;1.80;99.90;;;;;;5030411;28;20044;-82
2024/01/28 05:31:07;;;;;;;19.35;10.48;;;1.80;99.90;;;;;;5031186;28;20022;-74
2024/01/28 05:33:34;;;;;;;21.30;11.52;;;1.80;99.90;;;;;;5032326;28;20024;-82
2024/01/28 05:36:00;;;;;;;22.45;10.05;;;1.80;99.90;;;;;;5030063;28;20112;-74
2024/01/28 05:38:26;;;;;;;20.45;10.88;;;1.90;99.90;;;;;;5032217;27;20060;-82
2024/01/28 05:40:52;;;;;;;26.05;12.77;;;1.90;99.90;;;;;;5032976;27;20059;-82
2024/01/28 05:43:17;;;;;;;34.35;12.63;;;1.90;99.90;;;;;;5032956;27;20049;-74
2024/01/28 05:45:43;;;;;;;21.92;11.88;;;1.90;99.90;;;;;;5031805;27;20060;-74
2024/01/28 05:48:09;;;;;;;22.73;11.63;;;1.90;99.90;;;;;;5029983;28;20021;-74
2024/01/28 05:50:34;;;;;;;30.58;15.32;;;1.90;99.90;;;;;;5127367;27;20027;-74
2024/01/28 05:53:00;;;;;;;30.92;15.32;;;1.90;99.90;;;;;;5132809;27;20110;-82
2024/01/28 05:55:26;;;;;;;50.72;21.40;;;1.90;99.90;;;;;;5134121;27;20023;-82
2024/01/28 05:57:53;;;;;;;35.83;16.10;;;1.90;99.90;;;;;;5134317;27;20019;-74
2024/01/28 06:00:19;;;;;;;28.15;14.38;;;1.90;99.90;;;;;;5062274;27;20483;-75
2024/01/28 06:02:45;;;;;;;31.95;15.18;;;2.00;99.90;;;;;;5068674;27;20018;-74
2024/01/28 06:05:11;;;;;;;36.17;14.93;;;2.00;99.90;;;;;;5126473;27;20041;-82
2024/01/28 06:07:37;;;;;;;110.18;40.83;;;2.00;99.90;;;;;;5068254;27;20021;-81
2024/01/28 06:10:03;;;;;;;181.88;62.60;;;1.90;99.90;;;;;;5126825;27;20020;-81
2024/01/28 06:12:28;;;;;;;355.13;115.20;;;1.90;99.90;;;;;;5133562;27;20047;-82
2024/01/28 06:14:55;;;;;;;419.55;131.88;;;1.90;99.90;;;;;;5130675;27;20368;-74
2024/01/28 06:17:20;;;;;;;300.15;91.00;;;1.80;99.90;;;;;;5133574;27;20038;-74
2024/01/28 06:19:46;;;;;;;380.52;111.82;;;1.80;99.90;;;;;;5133494;27;20011;-74
2024/01/28 06:22:12;;;;;;;250.75;76.25;;;1.90;99.90;;;;;;5130027;27;20023;-74
2024/01/28 06:24:40;;;;;;;197.68;56.28;;;1.90;99.90;;;;;;5122180;27;20110;-81
2024/01/28 06:27:06;;;;;;;224.55;68.35;;;1.80;99.90;;;;;;5128334;27;20048;-75
2024/01/28 06:29:32;;;;;;;170.80;53.00;;;1.80;99.90;;;;;;5119845;27;20107;-80
2024/01/28 06:31:57;;;;;;;156.73;47.85;;;1.80;99.90;;;;;;5127386;27;20030;-83
2024/01/28 06:34:23;;;;;;;59.85;22.73;;;1.80;99.90;;;;;;5117568;27;20098;-83
2024/01/28 06:36:50;;;;;;;59.17;19.77;;;1.90;99.90;;;;;;5133262;27;20023;-83
2024/01/28 06:39:19;;;;;;;45.45;17.50;;;1.80;99.90;;;;;;5120105;27;20072;-74
2024/01/28 06:41:45;;;;;;;71.75;25.15;;;1.90;99.90;;;;;;5123199;27;20027;-74
2024/01/28 06:44:11;;;;;;;127.68;41.72;;;1.80;99.90;;;;;;5042552;27;20061;-73
2024/01/28 06:46:37;;;;;;;118.60;35.08;;;1.80;99.90;;;;;;5061072;27;20041;-74
2024/01/28 06:49:03;;;;;;;151.48;43.65;;;1.90;99.90;;;;;;5032929;27;20025;-74
2024/01/28 06:51:29;;;;;;;236.73;65.28;;;1.80;99.90;;;;;;5029012;28;20029;-73
2024/01/28 06:53:57;;;;;;;187.32;57.72;;;1.80;99.90;;;;;;5028877;28;20602;-75
2024/01/28 06:56:22;;;;;;;470.27;135.77;;;1.80;99.90;;;;;;5029167;28;20047;-74
2024/01/28 06:58:48;;;;;;;602.53;192.00;;;1.80;99.90;;;;;;5029852;28;20029;-74
2024/01/28 07:01:14;;;;;;;441.90;124.13;;;1.80;99.90;;;;;;5026411;28;20060;-74
2024/01/28 07:03:40;;;;;;;496.25;149.30;;;1.80;99.90;;;;;;5114129;27;20152;-74
2024/01/28 07:06:06;;;;;;;276.25;81.65;;;1.80;99.90;;;;;;5132477;27;20480;-74
2024/01/28 07:08:31;;;;;;;353.70;104.43;;;1.80;99.90;;;;;;5114441;27;20069;-74
2024/01/28 07:10:58;;;;;;;62.92;22.92;;;1.80;99.90;;;;;;5070672;27;20015;-74
2024/01/28 07:13:23;;;;;;;191.18;57.22;;;1.80;99.90;;;;;;5094904;27;20519;-74
2024/01/28 07:15:49;;;;;;;155.30;46.83;;;1.80;99.90;;;;;;5064077;27;20030;-74
2024/01/28 07:18:15;;;;;;;211.85;61.88;;;1.80;99.90;;;;;;5114777;28;20425;-75
2024/01/28 07:20:41;;;;;;;260.25;77.88;;;1.80;99.90;;;;;;5081678;27;20495;-74
2024/01/28 07:23:07;;;;;;;205.85;60.60;;;1.80;99.90;;;;;;5094176;27;20047;-74
2024/01/28 07:25:33;;;;;;;213.20;60.92;;;1.90;99.90;;;;;;5063166;27;20066;-74
2024/01/28 07:27:58;;;;;;;157.93;51.13;;;1.80;99.90;;;;;;5114523;28;20026;-74
2024/01/28 07:30:24;;;;;;;153.32;47.90;;;1.90;99.90;;;;;;5085410;28;20477;-73
2024/01/28 07:32:50;;;;;;;141.73;46.03;;;1.90;99.90;;;;;;5079091;28;20092;-74
2024/01/28 07:35:15;;;;;;;146.80;46.17;;;1.90;99.90;;;;;;5062053;28;20045;-73
2024/01/28 07:37:42;;;;;;;105.32;40.75;;;1.90;99.90;;;;;;5029746;28;20496;-73
2024/01/28 07:40:08;;;;;;;138.63;47.78;;;1.90;99.90;;;;;;5095886;28;20048;-74
2024/01/28 07:42:34;;;;;;;252.68;80.80;;;1.90;99.90;;;;;;5023922;28;20498;-74
2024/01/28 07:45:00;;;;;;;258.60;82.63;;;1.90;99.90;;;;;;5067680;28;20056;-74
2024/01/28 07:47:25;;;;;;;105.38;36.08;;;1.90;99.90;;;;;;5114655;27;20026;-74
2024/01/28 07:49:51;;;;;;;79.88;24.30;;;1.90;99.90;;;;;;5043187;28;20023;-73
2024/01/28 07:52:17;;;;;;;69.32;25.02;;;1.90;99.90;;;;;;5052668;28;20024;-74
2024/01/28 07:54:42;;;;;;;52.88;18.48;;;1.90;99.90;;;;;;5087438;28;20015;-74
2024/01/28 07:57:08;;;;;;;42.10;15.52;;;1.90;99.90;;;;;;5045292;28;20049;-74
2024/01/28 07:59:34;;;;;;;49.13;16.50;;;1.90;99.90;;;;;;5052729;28;20065;-74
2024/01/28 08:01:59;;;;;;;30.85;14.98;;;1.90;99.90;;;;;;5045416;28;20465;-74
2024/01/28 08:04:25;;;;;;;43.92;16.92;;;1.90;99.90;;;;;;5061529;28;20035;-75
2024/01/28 08:06:51;;;;;;;51.95;18.23;;;1.90;99.90;;;;;;5030091;28;20558;-77
2024/01/28 08:09:17;;;;;;;29.58;12.48;;;1.90;99.90;;;;;;5097782;28;20080;-79
2024/01/28 08:11:43;;;;;;;30.27;11.25;;;2.00;99.90;;;;;;5030243;28;20026;-78
2024/01/28 08:14:09;;;;;;;25.13;11.07;;;2.00;99.90;;;;;;5033211;28;20094;-77
2024/01/28 08:16:35;;;;;;;19.45;10.18;;;2.00;99.90;;;;;;5031351;28;20029;-78
2024/01/28 08:19:04;;;;;;;21.52;9.60;;;2.00;99.90;;;;;;5036028;27;20018;-75
2024/01/28 08:21:30;;;;;;;26.75;12.57;;;2.00;99.90;;;;;;5033210;27;20053;-73
2024/01/28 08:23:55;;;;;;;32.65;14.98;;;2.00;99.90;;;;;;5036371;27;20463;-73
2024/01/28 08:26:21;;;;;;;34.53;15.45;;;2.10;99.90;;;;;;5028736;28;20072;-72
2024/01/28 08:28:47;;;;;;;36.85;14.75;;;2.10;99.90;;;;;;5057253;27;20020;-81
2024/01/28 08:31:13;;;;;;;29.25;13.43;;;2.10;99.90;;;;;;5071574;27;20015;-83
2024/01/28 08:33:38;;;;;;;28.48;13.15;;;2.10;99.90;;;;;;5126417;27;20027;-75
2024/01/28 08:36:04;;;;;;;30.80;13.38;;;2.10;99.90;;;;;;5092250;27;20033;-83
2024/01/28 08:38:32;;;;;;;31.42;13.70;;;2.10;99.90;;;;;;5093848;27;20023;-82
2024/01/28 08:40:57;;;;;;;34.35;15.48;;;2.20;99.90;;;;;;5129977;27;20094;-74
2024/01/28 08:43:23;;;;;;;32.70;16.33;;;2.20;99.90;;;;;;5122016;27;20475;-75
2024/01/28 08:45:49;;;;;;;36.72;19.05;;;2.30;99.90;;;;;;5096139;27;20037;-82
2024/01/28 08:48:15;;;;;;;40.22;18.73;;;2.30;99.90;;;;;;5030931;28;20044;-79
2024/01/28 08:50:40;;;;;;;53.00;24.02;;;2.40;99.90;;;;;;5088240;27;20466;-73
2024/01/28 08:53:07;;;;;;;36.78;18.02;;;2.40;99.90;;;;;;5105086;27;20071;-72
2024/01/28 08:55:33;;;;;;;31.63;15.18;;;2.40;99.90;;;;;;5063219;27;20104;-72
2024/01/28 08:57:59;;;;;;;38.47;15.13;;;2.40;99.90;;;;;;5032664;27;20263;-75
2024/01/28 09:00:25;;;;;;;45.47;18.73;;;2.50;99.90;;;;;;5030450;28;20025;-75
2024/01/28 09:02:51;;;;;;;81.57;31.10;;;2.50;99.90;;;;;;5063664;27;20029;-75
2024/01/28 09:05:16;;;;;;;50.83;18.63;;;2.60;99.90;;;;;;5063610;27;20031;-74
2024/01/28 09:07:42;;;;;;;42.47;17.52;;;2.60;99.90;;;;;;5064625;27;20025;-75
2024/01/28 09:10:08;;;;;;;40.65;16.63;;;2.60;99.90;;;;;;5057142;27;20015;-75
2024/01/28 09:12:34;;;;;;;30.90;15.50;;;2.60;99.90;;;;;;5065758;27;20128;-76
2024/01/28 09:15:00;;;;;;;39.92;17.83;;;2.60;99.90;;;;;;5060257;27;20518;-75
2024/01/28 09:17:25;;;;;;;37.05;16.67;;;2.60;99.90;;;;;;5058505;27;20114;-74
2024/01/28 09:19:51;;;;;;;33.53;15.70;;;2.60;99.90;;;;;;5119881;27;20023;-75
2024/01/28 09:22:17;;;;;;;43.30;17.80;;;2.60;99.90;;;;;;5031284;28;20017;-74
2024/01/28 09:24:42;;;;;;;89.80;30.77;;;2.60;99.90;;;;;;5059211;27;20039;-82
2024/01/28 09:27:08;;;;;;;48.05;23.58;;;2.60;99.90;;;;;;5058974;27;20387;-82
2024/01/28 09:29:37;;;;;;;45.80;20.70;;;2.60;99.90;;;;;;5027139;28;20030;-74
2024/01/28 09:32:03;;;;;;;64.35;30.70;;;2.60;99.90;;;;;;5029239;28;20025;-82
2024/01/28 09:34:30;;;;;;;110.55;44.85;;;2.60;99.90;;;;;;5044531;27;20439;-82
2024/01/28 09:36:56;;;;;;;43.50;17.80;;;2.60;99.90;;;;;;5037435;27;20061;-82
2024/01/28 09:39:21;;;;;;;46.58;20.05;;;2.60;99.90;;;;;;5034218;27;20056;-81
2024/01/28 09:42:09;;;;;;;73.93;30.10;;;2.60;99.90;;;;;;5037222;27;20022;-74
2024/01/28 09:44:36;;;;;;;73.53;30.90;;;2.60;99.90;;;;;;5020653;27;20566;-74
2024/01/28 09:47:02;;;;;;;39.97;18.40;;;2.60;99.90;;;;;;5030384;27;20382;-74
2024/01/28 09:49:30;;;;;;;40.47;19.13;;;2.60;99.90;;;;;;5032269;27;20390;-82
2024/01/28 09:51:56;;;;;;;83.35;39.60;;;2.60;99.90;;;;;;5041893;27;20017;-82
2024/01/28 09:54:22;;;;;;;91.53;38.03;;;2.60;99.90;;;;;;5129386;27;20046;-82
2024/01/28 09:56:49;;;;;;;78.68;32.40;;;2.60;99.90;;;;;;5126053;27;20024;-74
2024/01/28 09:59:15;;;;;;;51.85;23.67;;;2.60;99.90;;;;;;5098487;27;20547;-72
2024/01/28 10:01:42;;;;;;;56.00;25.63;;;2.70;99.90;;;;;;5033543;28;20032;-74
2024/01/28 10:04:10;;;;;;;58.58;27.80;;;2.70;99.90;;;;;;5084687;27;20051;-74
2024/01/28 10:06:36;;;;;;;55.17;26.45;;;2.70;99.90;;;;;;5045212;27;20033;-72
2024/01/28 10:09:02;;;;;;;40.70;21.40;;;2.70;99.90;;;;;;5073971;27;20033;-80
2024/01/28 10:11:28;;;;;;;52.85;23.63;;;2.70;99.90;;;;;;5031021;28;20470;-80
2024/01/28 10:13:56;;;;;;;53.42;22.17;;;2.70;99.90;;;;;;5032684;27;20157;-78
2024/01/28 10:16:23;;;;;;;47.42;24.45;;;2.70;99.90;;;;;;5037838;27;20019;-76
2024/01/28 10:18:49;;;;;;;42.25;18.05;;;2.80;99.90;;;;;;5028303;28;20041;-73
2024/01/28 10:21:15;;;;;;;40.65;18.02;;;2.80;99.90;;;;;;5027575;27;20354;-73
2024/01/28 10:23:43;;;;;;;36.83;17.95;;;2.80;99.90;;;;;;5029426;28;20021;-73
2024/01/28 10:26:09;;;;;;;38.03;17.25;;;2.90;99.90;;;;;;5083414;27;20036;-79
2024/01/28 10:28:40;;;;;;;82.80;31.02;;;2.90;99.90;;;;;;5019329;28;20022;-73
2024/01/28 10:31:06;;;;;;;41.70;16.17;;;3.00;99.90;;;;;;5028820;28;20100;-72
2024/01/28 10:33:32;;;;;;;198.30;70.78;;;3.00;99.90;;;;;;5030540;28;20530;-80
2024/01/28 10:36:01;;;;;;;515.55;196.73;;;3.10;99.90;;;;;;5042904;27;20131;-73
2024/01/28 10:38:30;;;;;;;252.98;89.00;;;3.10;99.90;;;;;;5118383;27;20096;-72
2024/01/28 10:40:59;;;;;;;455.17;150.45;;;3.10;99.90;;;;;;5084708;27;20056;-72
2024/01/28 10:43:39;;;;;;;120.07;42.00;;;3.10;99.90;;;;;;5042447;27;20448;-80
2024/01/28 10:46:06;;;;;;;402.48;119.32;;;3.20;99.90;;;;;;5051518;27;20038;-80
2024/01/28 10:48:35;;;;;;;204.20;62.80;;;3.20;99.90;;;;;;5036995;27;20026;-80
2024/01/28 10:51:01;;;;;;;184.27;58.10;;;3.20;99.90;;;;;;5044966;27;20027;-80
2024/01/28 10:53:29;;;;;;;141.43;48.88;;;3.20;99.90;;;;;;5019586;27;20026;-79
2024/01/28 10:55:55;;;;;;;456.08;148.38;;;3.20;99.90;;;;;;5050176;27;20460;-80
2024/01/28 10:58:21;;;;;;;151.05;57.53;;;3.30;99.90;;;;;;5032077;27;20535;-80
2024/01/28 11:00:48;;;;;;;151.77;53.30;;;3.30;99.90;;;;;;5047180;27;20045;-80
2024/01/28 11:03:14;;;;;;;209.55;67.38;;;3.30;99.90;;;;;;5033602;27;20025;-80
2024/01/28 11:05:41;;;;;;;92.38;33.47;;;3.30;99.90;;;;;;5014569;28;20568;-80
2024/01/28 11:08:07;;;;;;;88.88;36.78;;;3.30;99.90;;;;;;5075612;27;20015;-80
2024/01/28 11:10:34;;;;;;;62.67;25.63;;;3.30;99.90;;;;;;5050107;27;20506;-73
2024/01/28 11:13:03;;;;;;;136.23;47.90;;;3.30;99.90;;;;;;5084942;27;20046;-81
2024/01/28 11:15:30;;;;;;;129.02;45.90;;;3.40;99.90;;;;;;5056991;27;20117;-81
2024/01/28 11:18:00;;;;;;;108.68;44.78;;;3.40;99.90;;;;;;5074511;27;20053;-82
2024/01/28 11:20:31;;;;;;;101.03;40.55;;;3.50;99.90;;;;;;5058114;27;20030;-82
2024/01/28 11:23:01;;;;;;;34.90;16.38;;;3.60;99.90;;;;;;5031042;27;20390;-81
2024/01/28 11:25:29;;;;;;;102.80;47.22;;;3.60;99.90;;;;;;5034139;28;20037;-82
2024/01/28 11:28:03;;;;;;;85.35;37.33;;;3.70;99.90;;;;;;5022236;28;20025;-82
2024/01/28 11:30:29;;;;;;;196.45;78.63;;;3.80;99.90;;;;;;5029434;28;20037;-82
2024/01/28 11:33:12;;;;;;;140.68;57.78;;;3.80;99.90;;;;;;5023259;28;20022;-81
2024/01/28 11:35:41;;;;;;;138.75;57.50;;;3.90;99.90;;;;;;5032922;28;20021;-82
2024/01/28 11:38:09;;;;;;;60.70;29.90;;;3.90;99.90;;;;;;5035385;27;20014;-82
2024/01/28 11:40:37;;;;;;;66.60;28.73;;;3.80;99.90;;;;;;5065246;28;20124;-82
2024/01/28 11:43:06;;;;;;;75.03;34.50;;;3.80;99.90;;;;;;5047851;28;20482;-81
2024/01/28 11:45:32;;;;;;;93.20;39.20;;;3.90;99.90;;;;;;5048395;28;20058;-82
2024/01/28 11:47:57;;;;;;;239.48;79.47;;;3.90;99.90;;;;;;5010029;28;20018;-82
2024/01/28 11:50:24;;;;;;;155.32;56.63;;;3.90;99.90;;;;;;5030927;27;20367;-81
2024/01/28 11:52:49;;;;;;;106.78;39.45;;;3.80;99.90;;;;;;5026862;27;20464;-82
2024/01/28 11:55:17;;;;;;;87.65;34.28;;;3.80;99.90;;;;;;5053557;27;20038;-82
2024/01/28 11:57:45;;;;;;;82.05;31.92;;;3.80;99.90;;;;;;5048650;27;20077;-85
2024/01/28 12:00:12;;;;;;;65.40;25.67;;;3.80;99.90;;;;;;5123409;27;20035;-82
2024/01/28 12:02:38;;;;;;;129.55;45.78;;;3.80;99.90;;;;;;5111387;27;20027;-81
2024/01/28 12:05:05;;;;;;;62.55;24.60;;;3.80;99.90;;;;;;5112424;27;20037;-82
2024/01/28 12:07:33;;;;;;;114.53;41.35;;;3.80;99.90;;;;;;5094108;27;20041;-82
2024/01/28 12:10:00;;;;;;;241.93;88.63;;;3.70;99.90;;;;;;5091564;27;20026;-82
2024/01/28 12:12:27;;;;;;;98.97;37.83;;;3.70;99.90;;;;;;5101474;27;20526;-82
2024/01/28 12:14:53;;;;;;;122.32;45.78;;;3.70;99.90;;;;;;5087800;27;20104;-82
2024/01/28 12:17:18;;;;;;;125.50;47.47;;;3.70;99.90;;;;;;5133494;27;20106;-82
2024/01/28 12:19:44;;;;;;;77.68;30.50;;;3.70;99.90;;;;;;5085442;27;20066;-82
2024/01/28 12:22:11;;;;;;;118.30;44.55;;;3.70;99.90;;;;;;5125306;27;20015;-82
2024/01/28 12:24:43;;;;;;;85.32;35.85;;;3.70;99.90;;;;;;5084449;27;20048;-83
2024/01/28 12:27:09;;;;;;;67.32;27.13;;;3.70;99.90;;;;;;5069378;27;20032;-82
2024/01/28 12:29:35;;;;;;;71.78;30.10;;;3.60;99.90;;;;;;5086101;27;20038;-82
2024/01/28 12:32:01;;;;;;;177.85;66.32;;;3.60;99.90;;;;;;5112462;27;20027;-82